To NAV CANADA Home Page Login to a new session Search on AWWS site Feedback and Comments Disclaimer Vers la page française équivalente Tips FAQ What's new on the site To the Forecasts and Observations / NOTAM section To "File a Flight Plan" website Publications and other links Update of the User's profile FIC Telephone Numbers My Weather Data Folder Route Weather Data Regional Weather Data Local Weather Data To the Forecasts and Observations / NOTAM section
Request Generated 07/04/2015 at 09:24:19 UTC . Weather information available at that time is displayed.

METAR/TAF

GOOSE BAY/NL    

METAR CYYR 040900Z 05004KT 15SM BKN006 OVC020 12/11 A2972 RMK SF6SC2 SLP064=
METAR CYYR 040800Z 05005KT 15SM BKN006 OVC020 12/11 A2970 RMK SF6SC2 SLP058=
METAR CYYR 040700Z 06006KT 15SM BKN006 BKN040 OVC075 13/11 A2968 RMK SF6SC1AC2 SLP051=

TAF AMD CYYR 040812Z 0408/0506 05005KT P6SM OVC006 TEMPO 0408/0410
SCT006 OVC020
FM041000 05008KT P6SM BKN006 OVC030 TEMPO 0410/0414 SCT006 BKN030
FM041400 05010KT P6SM FEW012 BKN040
FM041600 04010KT P6SM SCT015 BKN040
FM042100 04005KT P6SM -SHRA OVC040
FM050200 04008KT P6SM SCT003 OVC020
RMK NXT FCST BY 041200Z=
Your time UTC time
Weather data provided by Environment Canada and NAV CANADA